Time;durP1;ratioP1;P1;durP2;ratioP2;P2;SDS_P1;SDS_P2;PMS_P1;PMS_P2;Temp;Humidity;BMP_temperature;BMP_pressure;BME280_temperature;BME280_humidity;BME280_pressure;Samples;Min_cycle;Max_cycle;Signal;HPM_P1;HPM_P2
2022/01/07 00:01:26;;;;;;;19.90;8.07;;;3.40;99.90;;;;;;5056230;28;20387;-73
2022/01/07 00:03:52;;;;;;;23.23;8.63;;;3.40;99.90;;;;;;5056130;28;20479;-71
2022/01/07 00:06:18;;;;;;;22.58;8.98;;;3.40;99.90;;;;;;5056373;28;20056;-71
2022/01/07 00:08:44;;;;;;;20.98;7.95;;;3.40;99.90;;;;;;5039382;28;20055;-71
2022/01/07 00:11:10;;;;;;;23.35;9.50;;;3.40;99.90;;;;;;5055819;28;20041;-72
2022/01/07 00:13:37;;;;;;;19.40;8.20;;;3.50;99.90;;;;;;5055853;28;20601;-71
2022/01/07 00:16:03;;;;;;;21.00;8.30;;;3.50;99.90;;;;;;5055886;28;20105;-72
2022/01/07 00:18:29;;;;;;;22.33;7.82;;;3.50;99.90;;;;;;5055689;28;20483;-71
2022/01/07 00:20:56;;;;;;;19.20;7.20;;;3.50;99.90;;;;;;5052725;28;20054;-71
2022/01/07 00:23:22;;;;;;;19.83;7.70;;;3.50;99.90;;;;;;5040524;28;20068;-72
2022/01/07 00:25:49;;;;;;;18.20;7.75;;;3.50;99.90;;;;;;5039169;28;20045;-72
2022/01/07 00:28:15;;;;;;;17.65;7.20;;;3.50;99.90;;;;;;5055830;28;20036;-72
2022/01/07 00:30:41;;;;;;;18.95;6.75;;;3.50;99.90;;;;;;5052398;28;20037;-71
2022/01/07 00:33:07;;;;;;;19.27;7.47;;;3.60;99.90;;;;;;5054174;28;20044;-73
2022/01/07 00:35:33;;;;;;;17.58;7.13;;;3.60;99.90;;;;;;5052450;28;20037;-72
2022/01/07 00:37:59;;;;;;;18.02;6.85;;;3.60;99.90;;;;;;5070486;28;20391;-74
2022/01/07 00:40:26;;;;;;;15.88;6.55;;;3.50;99.90;;;;;;5055540;28;20485;-72
2022/01/07 00:42:53;;;;;;;16.30;6.10;;;3.60;99.90;;;;;;5039112;28;20040;-72
2022/01/07 00:45:19;;;;;;;16.10;5.95;;;3.60;99.90;;;;;;5039145;28;20063;-72
2022/01/07 00:47:45;;;;;;;17.85;6.20;;;3.60;99.90;;;;;;5055988;28;20041;-72
2022/01/07 00:50:12;;;;;;;16.85;6.75;;;3.60;99.90;;;;;;5037478;28;20402;-72
2022/01/07 00:52:38;;;;;;;18.52;6.65;;;3.50;99.90;;;;;;5052294;28;20369;-72
2022/01/07 00:55:05;;;;;;;18.60;6.07;;;3.50;99.90;;;;;;5065388;28;20502;-72
2022/01/07 00:57:30;;;;;;;16.83;6.85;;;3.50;99.90;;;;;;5054717;28;20123;-72
2022/01/07 00:59:56;;;;;;;16.10;6.03;;;3.50;99.90;;;;;;5038261;28;20132;-71
2022/01/07 01:02:22;;;;;;;15.40;6.05;;;3.40;99.90;;;;;;5055548;28;20059;-72
2022/01/07 01:04:47;;;;;;;14.00;5.90;;;3.40;99.90;;;;;;5052040;28;20036;-70
2022/01/07 01:07:14;;;;;;;16.25;5.97;;;3.40;99.90;;;;;;5035623;28;20508;-72
2022/01/07 01:09:41;;;;;;;20.45;6.68;;;3.40;99.90;;;;;;5043426;28;20036;-71
2022/01/07 01:12:08;;;;;;;14.60;6.88;;;3.30;99.90;;;;;;5054645;28;20123;-71
2022/01/07 01:14:35;;;;;;;15.32;5.55;;;3.30;99.90;;;;;;5054158;28;20052;-71
2022/01/07 01:17:01;;;;;;;19.23;6.70;;;3.30;99.90;;;;;;5051791;28;20033;-72
2022/01/07 01:19:27;;;;;;;12.88;6.07;;;3.20;99.90;;;;;;5048563;28;20099;-71
2022/01/07 01:21:53;;;;;;;20.17;6.85;;;3.20;99.90;;;;;;5043305;28;20424;-71
2022/01/07 01:24:19;;;;;;;12.95;6.13;;;3.10;99.90;;;;;;5054338;28;20033;-70
2022/01/07 01:26:45;;;;;;;18.23;7.15;;;3.10;99.90;;;;;;5051586;28;20048;-73
2022/01/07 01:29:10;;;;;;;19.58;7.28;;;3.10;99.90;;;;;;5036371;28;20474;-70
2022/01/07 01:31:36;;;;;;;17.83;7.10;;;3.10;99.90;;;;;;5054773;28;20067;-71
2022/01/07 01:34:03;;;;;;;21.92;7.50;;;3.00;99.90;;;;;;5051775;28;20116;-70
2022/01/07 01:36:30;;;;;;;18.52;7.45;;;3.00;99.90;;;;;;5051271;28;20037;-75
2022/01/07 01:38:56;;;;;;;18.23;7.53;;;3.00;99.90;;;;;;5035517;28;20541;-72
2022/01/07 01:41:22;;;;;;;20.95;7.68;;;3.00;99.90;;;;;;5051792;28;20037;-73
2022/01/07 01:43:49;;;;;;;18.52;7.28;;;2.90;99.90;;;;;;5019170;28;20033;-72
2022/01/07 01:46:19;;;;;;;19.50;7.93;;;2.90;99.90;;;;;;5042822;28;20045;-71
2022/01/07 01:48:45;;;;;;;18.58;8.18;;;2.90;99.90;;;;;;5018928;28;20051;-71
2022/01/07 01:51:12;;;;;;;19.83;8.18;;;2.80;99.90;;;;;;5050655;28;20033;-71
2022/01/07 01:53:38;;;;;;;18.77;8.13;;;2.90;99.90;;;;;;5034918;28;20033;-72
2022/01/07 01:56:04;;;;;;;18.63;8.32;;;2.80;99.90;;;;;;5048355;28;20124;-71
2022/01/07 01:58:30;;;;;;;22.00;8.88;;;2.80;99.90;;;;;;5048570;28;20089;-71
2022/01/07 02:00:55;;;;;;;21.00;8.18;;;2.80;99.90;;;;;;5052157;28;20395;-71
2022/01/07 02:03:22;;;;;;;22.80;8.77;;;2.80;99.90;;;;;;5038907;28;20041;-72
2022/01/07 02:05:48;;;;;;;24.67;8.93;;;2.70;99.90;;;;;;5043303;28;20482;-70
2022/01/07 02:08:14;;;;;;;25.45;9.32;;;2.80;99.90;;;;;;5058192;28;20037;-72
2022/01/07 02:10:40;;;;;;;18.63;9.35;;;2.70;99.90;;;;;;5059026;28;20116;-71
2022/01/07 02:13:06;;;;;;;21.73;9.82;;;2.70;99.90;;;;;;5058518;28;20040;-71
2022/01/07 02:15:31;;;;;;;19.80;8.90;;;2.70;99.90;;;;;;5058532;28;20090;-71
2022/01/07 02:17:57;;;;;;;17.58;8.95;;;2.70;99.90;;;;;;5054985;28;20083;-71
2022/01/07 02:20:25;;;;;;;20.48;9.27;;;2.70;99.90;;;;;;5039497;28;20045;-72
2022/01/07 02:22:52;;;;;;;21.92;9.85;;;2.70;99.90;;;;;;5057676;28;20040;-71
2022/01/07 02:25:20;;;;;;;23.50;10.10;;;2.70;99.90;;;;;;5058436;28;20041;-74
2022/01/07 02:27:47;;;;;;;21.42;9.07;;;2.70;99.90;;;;;;5054933;28;20098;-74
2022/01/07 02:30:17;;;;;;;20.88;9.63;;;2.70;99.90;;;;;;5023030;28;20044;-70
2022/01/07 02:32:43;;;;;;;20.23;10.68;;;2.70;99.90;;;;;;5058365;28;20048;-72
2022/01/07 02:35:10;;;;;;;23.27;10.30;;;2.70;99.90;;;;;;5041515;28;20076;-71
2022/01/07 02:37:36;;;;;;;20.85;10.38;;;2.70;99.90;;;;;;5057720;28;20032;-71
2022/01/07 02:40:04;;;;;;;21.95;11.55;;;2.70;99.90;;;;;;5058166;28;20037;-71
2022/01/07 02:42:30;;;;;;;25.00;10.98;;;2.70;99.90;;;;;;5055755;28;20072;-71
2022/01/07 02:44:55;;;;;;;20.88;11.23;;;2.70;99.90;;;;;;5054630;28;20071;-72
2022/01/07 02:47:21;;;;;;;21.88;11.40;;;2.60;99.90;;;;;;5044840;28;20032;-74
2022/01/07 02:49:48;;;;;;;22.05;12.60;;;2.60;99.90;;;;;;5040435;28;20139;-71
2022/01/07 02:52:14;;;;;;;28.30;12.38;;;2.60;99.90;;;;;;5057210;28;20044;-73
2022/01/07 02:54:40;;;;;;;24.40;13.65;;;2.60;99.90;;;;;;5054522;28;20029;-72
2022/01/07 02:57:06;;;;;;;24.38;12.35;;;2.60;99.90;;;;;;5053525;28;20086;-73
2022/01/07 02:59:31;;;;;;;27.73;12.93;;;2.60;99.90;;;;;;5057780;28;20045;-71
2022/01/07 03:01:57;;;;;;;19.95;12.82;;;2.50;99.90;;;;;;5037538;28;20049;-73
2022/01/07 03:04:26;;;;;;;23.80;13.23;;;2.50;99.90;;;;;;5048460;28;20695;-73
2022/01/07 03:06:52;;;;;;;23.25;13.18;;;2.50;99.90;;;;;;5053823;28;20114;-73
2022/01/07 03:09:18;;;;;;;27.30;13.00;;;2.60;99.90;;;;;;5055319;28;20068;-71
2022/01/07 03:11:43;;;;;;;25.92;13.07;;;2.60;99.90;;;;;;5053418;28;20429;-71
2022/01/07 03:14:09;;;;;;;24.98;13.68;;;2.60;99.90;;;;;;5053202;28;20044;-71
2022/01/07 03:16:35;;;;;;;27.90;12.90;;;2.60;99.90;;;;;;5055253;28;20045;-71
2022/01/07 03:19:01;;;;;;;24.08;13.77;;;2.60;99.90;;;;;;5020740;28;20541;-71
2022/01/07 03:21:26;;;;;;;26.30;14.10;;;2.60;99.90;;;;;;5046905;28;20040;-71
2022/01/07 03:23:52;;;;;;;28.77;13.85;;;2.60;99.90;;;;;;5053904;28;20372;-70
2022/01/07 03:26:18;;;;;;;24.25;12.57;;;2.60;99.90;;;;;;5024638;28;20044;-71
2022/01/07 03:28:46;;;;;;;20.42;12.00;;;2.50;99.90;;;;;;5037634;28;20212;-71
2022/01/07 03:31:11;;;;;;;22.95;13.02;;;2.50;99.90;;;;;;5042316;28;20044;-72
2022/01/07 03:33:37;;;;;;;21.23;12.18;;;2.60;99.90;;;;;;5048695;28;20040;-71
2022/01/07 03:36:05;;;;;;;25.85;13.45;;;2.50;99.90;;;;;;5053045;28;20368;-73
2022/01/07 03:38:31;;;;;;;25.10;13.20;;;2.50;99.90;;;;;;5037366;28;20037;-71
2022/01/07 03:40:56;;;;;;;20.52;12.50;;;2.50;99.90;;;;;;5043181;28;20051;-71
2022/01/07 03:43:23;;;;;;;23.38;13.18;;;2.50;99.90;;;;;;5057022;28;20036;-71
2022/01/07 03:45:48;;;;;;;27.98;13.88;;;2.50;99.90;;;;;;5056219;28;20047;-73
2022/01/07 03:48:14;;;;;;;23.65;13.20;;;2.50;99.90;;;;;;5056155;28;20044;-70
2022/01/07 03:50:40;;;;;;;22.52;12.40;;;2.50;99.90;;;;;;5056623;28;20116;-71
2022/01/07 03:53:06;;;;;;;20.90;12.40;;;2.50;99.90;;;;;;5053624;28;20051;-71
2022/01/07 03:55:32;;;;;;;22.70;12.60;;;2.60;99.90;;;;;;5054730;28;20119;-71
2022/01/07 03:57:58;;;;;;;22.35;13.00;;;2.60;99.90;;;;;;5057128;28;20460;-70
2022/01/07 04:00:32;;;;;;;22.40;12.40;;;2.60;99.90;;;;;;5055938;28;20056;-73
2022/01/07 04:03:00;;;;;;;21.73;12.95;;;2.60;99.90;;;;;;5039390;28;20048;-71
2022/01/07 04:05:25;;;;;;;29.10;14.02;;;2.60;99.90;;;;;;5053848;28;20094;-71
2022/01/07 04:07:51;;;;;;;23.80;12.98;;;2.60;99.90;;;;;;5056474;28;20421;-71
2022/01/07 04:10:17;;;;;;;20.30;11.38;;;2.60;99.90;;;;;;5039395;28;20032;-71
2022/01/07 04:12:43;;;;;;;24.88;12.82;;;2.70;99.90;;;;;;5055810;28;20115;-71
2022/01/07 04:15:09;;;;;;;23.63;13.13;;;2.70;99.90;;;;;;5056407;28;20174;-71
2022/01/07 04:17:40;;;;;;;23.23;12.40;;;2.70;99.90;;;;;;5055210;28;20383;-73
2022/01/07 04:20:08;;;;;;;26.00;12.88;;;2.70;99.90;;;;;;5055995;28;20045;-72
2022/01/07 04:22:34;;;;;;;25.27;12.45;;;2.70;99.90;;;;;;5054705;28;20044;-71
2022/01/07 04:25:02;;;;;;;25.48;13.05;;;2.70;99.90;;;;;;5039128;28;20101;-71
2022/01/07 04:27:28;;;;;;;18.73;11.85;;;2.70;99.90;;;;;;5055690;28;20041;-70
2022/01/07 04:29:54;;;;;;;27.80;13.73;;;2.80;99.90;;;;;;5056128;28;20067;-71
2022/01/07 04:32:19;;;;;;;22.65;12.13;;;2.70;99.90;;;;;;5052159;28;20048;-71
2022/01/07 04:34:45;;;;;;;20.25;11.25;;;2.70;99.90;;;;;;5061215;28;20054;-74
2022/01/07 04:37:10;;;;;;;21.88;11.60;;;2.70;99.90;;;;;;5052495;28;20510;-71
2022/01/07 04:39:36;;;;;;;23.02;13.25;;;2.70;99.90;;;;;;5036483;28;20071;-72
2022/01/07 04:42:02;;;;;;;22.65;12.82;;;2.70;99.90;;;;;;5036551;28;20036;-71
2022/01/07 04:44:28;;;;;;;24.23;12.15;;;2.70;99.90;;;;;;5053432;28;20037;-72
2022/01/07 04:46:53;;;;;;;20.70;12.40;;;2.70;99.90;;;;;;5052013;28;20041;-71
2022/01/07 04:49:19;;;;;;;21.77;11.93;;;2.80;99.90;;;;;;5029586;28;20036;-72
2022/01/07 04:51:45;;;;;;;20.70;12.23;;;2.70;99.90;;;;;;5054692;28;20402;-71
2022/01/07 04:54:10;;;;;;;20.80;12.18;;;2.70;99.90;;;;;;5055580;28;20486;-71
2022/01/07 04:56:36;;;;;;;21.05;12.43;;;2.70;99.90;;;;;;5052078;28;20120;-74
2022/01/07 04:59:02;;;;;;;23.90;12.27;;;2.80;99.90;;;;;;5038562;28;20048;-71
2022/01/07 05:01:27;;;;;;;23.17;12.05;;;2.80;99.90;;;;;;5044859;28;20058;-71
2022/01/07 05:03:53;;;;;;;21.45;12.07;;;2.80;99.90;;;;;;5047365;28;20048;-71
2022/01/07 05:08:44;;;;;;;14.82;10.80;;;2.80;99.90;;;;;;5055400;28;20402;-71
2022/01/07 05:11:10;;;;;;;16.65;11.48;;;2.80;99.90;;;;;;5055137;28;20062;-70
2022/01/07 05:13:35;;;;;;;17.38;10.57;;;2.70;99.90;;;;;;5051957;28;20033;-73
2022/01/07 05:16:01;;;;;;;21.48;11.90;;;2.80;99.90;;;;;;5035593;28;20053;-73
2022/01/07 05:18:26;;;;;;;19.05;10.82;;;2.80;99.90;;;;;;5052295;28;20451;-73
2022/01/07 05:20:52;;;;;;;19.60;10.90;;;2.80;99.90;;;;;;5051416;28;20120;-70
2022/01/07 05:23:19;;;;;;;15.43;10.07;;;2.80;99.90;;;;;;5047872;28;20036;-71
2022/01/07 05:25:44;;;;;;;16.20;10.80;;;2.80;99.90;;;;;;5055719;28;20102;-71
2022/01/07 05:28:10;;;;;;;17.20;10.70;;;2.80;99.90;;;;;;5055502;28;20044;-73
2022/01/07 05:30:36;;;;;;;19.25;10.90;;;2.80;99.90;;;;;;5054958;28;20433;-72
2022/01/07 05:33:02;;;;;;;17.85;10.25;;;2.80;99.90;;;;;;5055629;28;20040;-71
2022/01/07 05:35:29;;;;;;;19.95;10.55;;;2.80;99.90;;;;;;5057982;28;20044;-71
2022/01/07 05:37:55;;;;;;;17.75;10.20;;;2.80;99.90;;;;;;5059340;28;20044;-72
2022/01/07 05:40:20;;;;;;;18.10;9.85;;;2.70;99.90;;;;;;5059683;28;20057;-71
2022/01/07 05:42:46;;;;;;;16.67;10.45;;;2.70;99.90;;;;;;5059291;28;20382;-71
2022/01/07 05:45:12;;;;;;;16.20;9.85;;;2.70;99.90;;;;;;5058998;28;20143;-71
2022/01/07 05:47:38;;;;;;;15.93;9.45;;;2.70;99.90;;;;;;5058783;28;20453;-71
2022/01/07 05:50:06;;;;;;;16.30;9.25;;;2.70;99.90;;;;;;5059716;28;20044;-71
2022/01/07 05:52:32;;;;;;;13.43;8.77;;;2.80;99.90;;;;;;5059760;28;20084;-72
2022/01/07 05:54:58;;;;;;;13.75;10.20;;;2.70;99.90;;;;;;5059218;28;20102;-71
2022/01/07 05:57:24;;;;;;;16.55;9.57;;;2.80;99.90;;;;;;5059164;28;20094;-74
2022/01/07 05:59:49;;;;;;;16.05;9.38;;;2.80;99.90;;;;;;5058598;28;20048;-70
2022/01/07 06:02:15;;;;;;;14.70;10.20;;;2.80;99.90;;;;;;5059090;28;20386;-71
2022/01/07 06:04:42;;;;;;;17.65;9.80;;;2.80;99.90;;;;;;5059129;28;20076;-71
2022/01/07 06:07:08;;;;;;;16.73;10.07;;;2.80;99.90;;;;;;5059296;28;20074;-71
2022/01/07 06:09:34;;;;;;;16.45;10.45;;;2.80;99.90;;;;;;5058886;28;20378;-71
2022/01/07 06:11:59;;;;;;;16.67;9.80;;;2.80;99.90;;;;;;5058487;28;20386;-71
2022/01/07 06:14:26;;;;;;;13.48;9.75;;;2.90;99.90;;;;;;5058377;28;20048;-72
2022/01/07 06:16:52;;;;;;;13.88;9.57;;;2.90;99.90;;;;;;5059474;28;20086;-71
2022/01/07 06:19:18;;;;;;;15.60;9.65;;;2.90;99.90;;;;;;5054608;28;20061;-73
2022/01/07 06:21:44;;;;;;;15.27;10.10;;;2.90;99.90;;;;;;5038756;28;20052;-71
2022/01/07 06:24:09;;;;;;;15.25;10.00;;;2.90;99.90;;;;;;5038771;28;20357;-74
2022/01/07 06:26:35;;;;;;;16.85;10.38;;;2.90;99.90;;;;;;5055357;28;20103;-70
2022/01/07 06:29:01;;;;;;;13.70;9.02;;;2.90;99.90;;;;;;5054977;28;20447;-71
2022/01/07 06:31:26;;;;;;;15.05;9.98;;;2.90;99.90;;;;;;5039028;28;20036;-71
2022/01/07 06:33:52;;;;;;;16.65;9.70;;;3.00;99.90;;;;;;5038248;28;20067;-71
2022/01/07 06:36:17;;;;;;;16.58;9.80;;;2.90;99.90;;;;;;5038645;28;20128;-71
2022/01/07 06:38:43;;;;;;;16.10;10.70;;;3.00;99.90;;;;;;5038212;28;20387;-71
2022/01/07 06:41:09;;;;;;;14.98;9.43;;;3.00;99.90;;;;;;5068084;28;20047;-74
2022/01/07 06:43:34;;;;;;;14.80;10.07;;;3.00;99.90;;;;;;5053620;28;20082;-73
2022/01/07 06:46:00;;;;;;;14.27;9.57;;;3.00;99.90;;;;;;5054411;28;20098;-71
2022/01/07 06:48:26;;;;;;;13.88;9.57;;;3.00;99.90;;;;;;5038423;28;20037;-71
2022/01/07 06:50:51;;;;;;;13.07;9.02;;;3.00;99.90;;;;;;5038032;28;20033;-71
2022/01/07 06:53:17;;;;;;;14.05;9.20;;;3.10;99.90;;;;;;5038483;28;20051;-75
2022/01/07 06:55:43;;;;;;;13.63;9.23;;;3.00;99.90;;;;;;5038118;28;20080;-72
2022/01/07 06:58:08;;;;;;;16.30;9.52;;;3.00;99.90;;;;;;5037712;28;20476;-71
2022/01/07 07:00:34;;;;;;;14.40;10.07;;;3.00;99.90;;;;;;5037778;28;20049;-71
2022/01/07 07:02:59;;;;;;;14.02;10.13;;;3.00;99.90;;;;;;5054900;28;20119;-72
2022/01/07 07:05:25;;;;;;;16.70;10.35;;;3.00;99.90;;;;;;5047332;28;20371;-72
2022/01/07 07:07:51;;;;;;;13.70;10.52;;;3.00;99.90;;;;;;5038014;28;20051;-72
2022/01/07 07:10:17;;;;;;;18.35;11.05;;;3.00;99.90;;;;;;5021096;28;20037;-72
2022/01/07 07:12:43;;;;;;;16.15;10.80;;;3.00;99.90;;;;;;5037509;28;20379;-71
2022/01/07 07:15:09;;;;;;;14.82;10.48;;;3.00;99.90;;;;;;5038560;28;20106;-70
2022/01/07 07:17:34;;;;;;;16.67;11.02;;;3.00;99.90;;;;;;5038178;28;20076;-71
2022/01/07 07:20:02;;;;;;;15.57;11.20;;;3.10;99.90;;;;;;5020821;28;20045;-71
2022/01/07 07:22:29;;;;;;;15.73;11.40;;;3.00;99.90;;;;;;5037606;28;20143;-71
2022/01/07 07:24:54;;;;;;;16.52;11.75;;;3.10;99.90;;;;;;5037641;28;20037;-71
2022/01/07 07:27:20;;;;;;;19.85;12.48;;;3.10;99.90;;;;;;5037185;28;20083;-71
2022/01/07 07:29:46;;;;;;;18.95;13.05;;;3.10;99.90;;;;;;5037171;28;20041;-71
2022/01/07 07:32:14;;;;;;;18.40;13.27;;;3.10;99.90;;;;;;5021571;28;20045;-71
2022/01/07 07:37:13;;;;;;;16.92;13.48;;;3.10;99.90;;;;;;5056779;28;20510;-74
2022/01/07 07:39:39;;;;;;;21.63;13.93;;;3.10;99.90;;;;;;5057275;28;20052;-73
2022/01/07 07:42:06;;;;;;;20.17;14.65;;;3.20;99.90;;;;;;5056868;28;20067;-72
2022/01/07 07:44:31;;;;;;;21.60;14.43;;;3.20;99.90;;;;;;5056962;28;20068;-71
2022/01/07 07:46:57;;;;;;;23.48;14.88;;;3.20;99.90;;;;;;5057193;28;20082;-74
2022/01/07 07:49:23;;;;;;;24.00;15.68;;;3.20;99.90;;;;;;5040014;28;20060;-71
2022/01/07 07:51:51;;;;;;;20.95;15.23;;;3.20;99.90;;;;;;5056825;28;20079;-72
2022/01/07 07:54:18;;;;;;;29.17;15.88;;;3.20;99.90;;;;;;5056913;28;20127;-71
2022/01/07 07:56:43;;;;;;;22.20;16.00;;;3.20;99.90;;;;;;5056463;28;20487;-71
2022/01/07 07:59:09;;;;;;;26.65;15.95;;;3.30;99.90;;;;;;5039514;28;20044;-74
2022/01/07 08:01:36;;;;;;;26.55;15.88;;;3.30;99.90;;;;;;5037892;28;20088;-71
2022/01/07 08:04:03;;;;;;;25.70;17.13;;;3.30;99.90;;;;;;5037575;28;20471;-71
2022/01/07 08:06:30;;;;;;;28.90;17.63;;;3.30;99.90;;;;;;5056746;28;20048;-71
2022/01/07 08:08:56;;;;;;;26.13;17.95;;;3.30;99.90;;;;;;5056464;28;20418;-73
2022/01/07 08:11:24;;;;;;;27.30;17.80;;;3.40;99.90;;;;;;5055970;28;20037;-71
2022/01/07 08:16:34;;;;;;;27.35;17.98;;;3.40;99.90;;;;;;5056804;28;20044;-73
2022/01/07 08:19:00;;;;;;;27.92;19.23;;;3.40;99.90;;;;;;5056232;28;20101;-71
2022/01/07 08:21:28;;;;;;;30.10;19.25;;;3.50;99.90;;;;;;5056368;28;20068;-71
2022/01/07 08:23:55;;;;;;;26.50;17.90;;;3.50;99.90;;;;;;5055870;28;20139;-72
2022/01/07 08:26:21;;;;;;;28.10;18.85;;;3.50;99.90;;;;;;5056151;28;20093;-72
2022/01/07 08:28:55;;;;;;;27.90;18.63;;;3.50;99.90;;;;;;5056480;28;20390;-72
2022/01/07 08:36:45;;;;;;;32.05;20.38;;;3.70;99.90;;;;;;5056860;28;20097;-71
2022/01/07 08:39:10;;;;;;;34.75;19.70;;;3.70;99.90;;;;;;5056223;28;20040;-71
2022/01/07 08:41:38;;;;;;;35.58;20.90;;;3.80;99.90;;;;;;5055920;28;20090;-71
2022/01/07 08:44:04;;;;;;;31.30;21.73;;;3.80;99.90;;;;;;5056136;28;20045;-72
2022/01/07 08:46:30;;;;;;;36.42;21.55;;;3.80;99.90;;;;;;5039068;28;20123;-72
2022/01/07 08:48:56;;;;;;;38.00;22.75;;;3.90;99.90;;;;;;5051744;28;20109;-72
2022/01/07 08:51:22;;;;;;;32.65;20.10;;;3.90;99.90;;;;;;5041291;28;20032;-72
2022/01/07 08:53:48;;;;;;;33.67;21.88;;;4.00;99.90;;;;;;5036098;28;20041;-72
2022/01/07 08:56:16;;;;;;;33.67;21.70;;;4.10;99.90;;;;;;5036318;28;20048;-73
2022/01/07 08:58:42;;;;;;;37.47;21.42;;;4.10;99.90;;;;;;5035878;28;20045;-72
2022/01/07 09:01:08;;;;;;;39.35;22.15;;;4.20;99.90;;;;;;5017336;28;20064;-72
2022/01/07 09:03:34;;;;;;;37.35;21.83;;;4.20;99.90;;;;;;5015746;28;20045;-72
2022/01/07 09:05:59;;;;;;;46.20;22.15;;;4.20;99.90;;;;;;5016138;28;20083;-72
2022/01/07 09:08:25;;;;;;;37.75;21.98;;;4.20;99.90;;;;;;5016489;28;20034;-72
2022/01/07 09:10:51;;;;;;;40.20;24.27;;;4.30;99.90;;;;;;5015659;28;20175;-74
2022/01/07 09:13:19;;;;;;;41.75;23.75;;;4.30;99.90;;;;;;4999506;28;20140;-72
2022/01/07 09:15:46;;;;;;;37.08;23.42;;;4.30;99.90;;;;;;5015850;28;20034;-72
2022/01/07 09:18:14;;;;;;;42.28;23.92;;;4.30;99.90;;;;;;5016132;28;20041;-74
2022/01/07 09:20:41;;;;;;;39.30;23.17;;;4.40;99.90;;;;;;5018720;28;20418;-72
2022/01/07 09:23:08;;;;;;;39.97;23.40;;;4.40;99.90;;;;;;5034907;28;20048;-74
2022/01/07 09:25:33;;;;;;;39.55;22.85;;;4.50;99.90;;;;;;5034720;28;20395;-72
2022/01/07 09:27:59;;;;;;;37.25;23.27;;;4.50;99.90;;;;;;5031554;28;20463;-72
2022/01/07 09:30:25;;;;;;;41.55;23.05;;;4.60;99.90;;;;;;5015299;28;20042;-72
2022/01/07 09:32:51;;;;;;;37.95;22.25;;;4.60;99.90;;;;;;5015812;28;20550;-72
2022/01/07 09:35:17;;;;;;;34.95;22.52;;;4.60;99.90;;;;;;5016287;28;20044;-72
2022/01/07 09:37:43;;;;;;;37.92;22.98;;;4.70;99.90;;;;;;5015525;28;20037;-72
2022/01/07 09:40:10;;;;;;;34.58;21.95;;;4.70;99.90;;;;;;5015589;28;20484;-71
2022/01/07 09:42:35;;;;;;;41.60;23.75;;;4.80;99.90;;;;;;5015572;28;20513;-72
2022/01/07 09:45:02;;;;;;;35.38;22.15;;;4.80;99.90;;;;;;5016620;28;20042;-72
2022/01/07 09:47:27;;;;;;;33.53;21.63;;;5.00;99.90;;;;;;5035495;28;20048;-71
2022/01/07 09:49:53;;;;;;;38.28;22.70;;;5.00;99.90;;;;;;5035473;28;20044;-72
2022/01/07 09:52:19;;;;;;;35.35;21.63;;;5.00;99.90;;;;;;5034856;28;20044;-72
2022/01/07 09:54:47;;;;;;;39.10;22.83;;;5.10;99.90;;;;;;5031606;28;20391;-72
2022/01/07 09:57:13;;;;;;;35.38;20.60;;;5.10;99.90;;;;;;5015396;28;20061;-72
2022/01/07 09:59:40;;;;;;;37.72;21.42;;;5.10;99.90;;;;;;5020876;28;20053;-71
2022/01/07 10:02:09;;;;;;;32.25;20.67;;;5.00;99.90;;;;;;5035324;28;20472;-74
2022/01/07 10:04:35;;;;;;;;;;;5.00;99.90;;;;;;5036227;28;20048;-73
2022/01/07 10:07:24;;;;;;;35.15;21.30;;;4.90;99.90;;;;;;5052086;28;19924;-72
2022/01/07 10:10:00;;;;;;;32.67;19.90;;;5.00;99.90;;;;;;5035290;28;20041;-73
2022/01/07 10:12:27;;;;;;;39.03;20.88;;;4.90;99.90;;;;;;5043699;28;20495;-72
2022/01/07 10:15:13;;;;;;;33.40;21.70;;;4.90;99.90;;;;;;5035825;28;20211;-72
2022/01/07 10:17:40;;;;;;;37.50;20.95;;;4.90;99.90;;;;;;5035344;28;20045;-71
2022/01/07 10:20:07;;;;;;;31.95;19.55;;;4.90;99.90;;;;;;5024102;28;20044;-72
2022/01/07 10:22:54;;;;;;;31.48;19.65;;;4.90;99.90;;;;;;5052828;28;20058;-72
2022/01/07 10:25:27;;;;;;;30.83;20.08;;;4.90;99.90;;;;;;5055419;28;20079;-71
2022/01/07 10:27:57;;;;;;;32.97;19.63;;;4.90;99.90;;;;;;5058571;28;20535;-71
2022/01/07 10:30:26;;;;;;;27.42;17.83;;;4.80;99.90;;;;;;5058392;28;20036;-73
2022/01/07 10:32:53;;;;;;;28.20;17.08;;;4.80;99.90;;;;;;5058345;28;20477;-71
2022/01/07 10:35:20;;;;;;;23.65;15.35;;;4.80;99.90;;;;;;5058172;28;20045;-71
2022/01/07 10:37:51;;;;;;;22.08;13.77;;;4.70;99.90;;;;;;5058428;28;20036;-72
2022/01/07 10:40:27;;;;;;;20.67;12.55;;;4.70;99.90;;;;;;5058434;28;20060;-71
2022/01/07 10:43:29;;;;;;;17.45;11.05;;;4.80;99.90;;;;;;5041035;28;20044;-74
2022/01/07 10:46:19;;;;;;;14.10;9.45;;;4.80;99.90;;;;;;5006394;28;20146;-71
2022/01/07 10:48:51;;;;;;;15.02;9.13;;;4.80;99.90;;;;;;5058545;28;20094;-70
2022/01/07 10:51:26;;;;;;;15.48;9.45;;;4.70;99.90;;;;;;5058168;28;20070;-73
2022/01/07 10:54:04;;;;;;;16.58;9.85;;;4.70;99.90;;;;;;5057854;28;20040;-72
2022/01/07 10:56:47;;;;;;;14.23;9.32;;;4.70;99.90;;;;;;5057963;28;20119;-72
2022/01/07 10:59:18;;;;;;;12.45;8.07;;;4.60;99.90;;;;;;5057676;28;20086;-72
2022/01/07 11:01:49;;;;;;;12.43;7.93;;;4.60;99.90;;;;;;5041043;28;20052;-72
2022/01/07 11:04:20;;;;;;;11.52;7.93;;;4.60;99.90;;;;;;5057701;28;20076;-72
2022/01/07 11:06:50;;;;;;;13.07;8.65;;;4.70;99.90;;;;;;5058155;28;20043;-72
2022/01/07 11:09:18;;;;;;;13.35;8.88;;;4.70;99.90;;;;;;5057996;28;20090;-72
2022/01/07 11:11:49;;;;;;;14.00;9.23;;;4.70;99.90;;;;;;5040845;28;20570;-72
2022/01/07 11:14:21;;;;;;;18.15;10.30;;;4.80;99.90;;;;;;5057873;28;20079;-72
2022/01/07 11:16:48;;;;;;;16.63;11.23;;;4.80;99.90;;;;;;5041192;28;20058;-74
2022/01/07 11:19:21;;;;;;;19.13;12.23;;;4.80;99.90;;;;;;5057580;28;20037;-72
2022/01/07 11:21:53;;;;;;;19.77;12.38;;;4.80;99.90;;;;;;5058199;28;20052;-73
2022/01/07 11:24:31;;;;;;;21.67;14.30;;;4.80;99.90;;;;;;5057614;28;20375;-72
2022/01/07 11:27:03;;;;;;;23.08;14.38;;;4.90;99.90;;;;;;5057545;28;20041;-71
2022/01/07 11:29:29;;;;;;;28.83;16.10;;;5.00;99.90;;;;;;5040829;28;20044;-72
2022/01/07 11:32:28;;;;;;;30.63;17.85;;;5.00;99.90;;;;;;5056465;28;20040;-72
2022/01/07 11:34:55;;;;;;;38.08;21.05;;;5.10;99.90;;;;;;5056589;28;20044;-72
2022/01/07 11:37:39;;;;;;;41.28;21.80;;;5.00;99.90;;;;;;5039916;28;20459;-71
2022/01/07 11:40:06;;;;;;;37.70;21.58;;;5.10;99.90;;;;;;5056496;28;20052;-74
2022/01/07 11:42:43;;;;;;;35.80;20.60;;;5.10;99.90;;;;;;5039953;28;20058;-72
2022/01/07 11:45:38;;;;;;;35.97;19.48;;;5.10;99.90;;;;;;5056252;28;20047;-72
2022/01/07 11:48:15;;;;;;;32.15;18.02;;;5.20;99.90;;;;;;5056175;28;20489;-74
2022/01/07 11:50:56;;;;;;;24.23;14.25;;;5.20;99.90;;;;;;5039316;28;20502;-73
2022/01/07 11:53:24;;;;;;;15.75;8.55;;;5.20;99.90;;;;;;5055908;28;20453;-72
2022/01/07 11:55:50;;;;;;;16.05;9.25;;;5.20;99.90;;;;;;5056376;28;20099;-71
2022/01/07 11:58:17;;;;;;;11.70;4.60;;;5.20;99.90;;;;;;5039602;28;20072;-71
2022/01/07 12:01:00;;;;;;;9.10;3.53;;;5.10;99.90;;;;;;5055403;28;20495;-71
2022/01/07 12:03:42;;;;;;;5.88;2.58;;;5.00;99.90;;;;;;5056221;28;20040;-72
2022/01/07 12:06:17;;;;;;;4.78;1.80;;;4.90;99.90;;;;;;5056139;28;20040;-72
2022/01/07 12:08:58;;;;;;;7.05;1.73;;;4.80;99.90;;;;;;5056138;28;20566;-71
2022/01/07 12:11:29;;;;;;;9.00;1.38;;;4.70;99.90;;;;;;5039214;28;20127;-71
2022/01/07 12:13:55;;;;;;;6.20;1.70;;;4.60;99.90;;;;;;5055884;28;20129;-73
2022/01/07 12:16:32;;;;;;;6.75;1.38;;;4.50;99.90;;;;;;5055984;28;20080;-73
2022/01/07 12:19:16;;;;;;;8.38;1.30;;;4.50;99.90;;;;;;5039235;28;20497;-72
2022/01/07 12:21:44;;;;;;;10.02;1.33;;;4.40;99.90;;;;;;5055712;28;20044;-72
2022/01/07 12:24:12;;;;;;;7.90;1.05;;;4.30;99.90;;;;;;5039104;28;20051;-72
2022/01/07 12:26:38;;;;;;;8.02;1.52;;;4.30;99.90;;;;;;5055703;28;20048;-71
2022/01/07 12:29:05;;;;;;;6.88;1.17;;;4.30;99.90;;;;;;5055749;28;20547;-72
2022/01/07 12:31:31;;;;;;;6.35;1.30;;;4.20;99.90;;;;;;5038960;28;20127;-71
2022/01/07 12:33:59;;;;;;;3.92;1.00;;;4.20;99.90;;;;;;5055463;28;20032;-72
2022/01/07 12:36:33;;;;;;;1.95;0.90;;;4.20;99.90;;;;;;5055589;28;20047;-71
2022/01/07 12:39:08;;;;;;;3.70;1.15;;;4.20;99.90;;;;;;5038937;28;20487;-74
2022/01/07 12:41:37;;;;;;;3.58;1.45;;;4.10;99.90;;;;;;5055443;28;20055;-71
2022/01/07 12:44:12;;;;;;;7.97;1.90;;;4.10;99.90;;;;;;5054881;28;20040;-72
2022/01/07 12:46:39;;;;;;;6.38;1.33;;;4.00;99.90;;;;;;5055164;28;20275;-73
2022/01/07 12:49:06;;;;;;;4.53;1.48;;;3.90;99.90;;;;;;5055267;28;20043;-72
2022/01/07 12:51:32;;;;;;;8.38;1.77;;;3.90;99.90;;;;;;5054994;28;20166;-72
2022/01/07 12:54:05;;;;;;;7.10;1.90;;;3.90;99.90;;;;;;5055244;28;20127;-72
2022/01/07 12:56:33;;;;;;;5.25;1.92;;;3.90;99.90;;;;;;5055637;28;20052;-73